Time;durP1;ratioP1;P1;durP2;ratioP2;P2;SDS_P1;SDS_P2;PMS_P1;PMS_P2;Temp;Humidity;BMP_temperature;BMP_pressure;BME280_temperature;BME280_humidity;BME280_pressure;Samples;Min_cycle;Max_cycle;Signal;HPM_P1;HPM_P2
2022/07/07 00:01:26;;;;;;;2.72;1.58;;;;;;;22.09;40.02;100063.94;4448148;32;35176;-81
2022/07/07 00:04:15;;;;;;;2.25;1.23;;;;;;;22.17;39.86;100054.97;4457543;32;33889;-82
2022/07/07 00:07:08;;;;;;;3.10;1.40;;;;;;;21.98;40.35;100052.69;4439962;32;33293;-79
2022/07/07 00:09:59;;;;;;;2.22;1.30;;;;;;;21.99;40.33;100059.97;4457374;32;33703;-79
2022/07/07 00:12:48;;;;;;;2.58;1.40;;;;;;;21.93;40.74;100061.06;4444761;32;33746;-79
2022/07/07 00:15:37;;;;;;;3.55;1.40;;;;;;;22.15;40.11;100057.22;4444230;32;34020;-79
2022/07/07 00:18:36;;;;;;;2.72;1.45;;;;;;;22.00;40.38;100063.59;4458397;32;33522;-79
2022/07/07 00:21:26;;;;;;;2.85;1.25;;;;;;;22.10;40.04;100065.62;4457485;32;34416;-79
2022/07/07 00:24:23;;;;;;;2.45;1.33;;;;;;;22.11;39.74;100062.50;4432844;32;34062;-79
2022/07/07 00:26:57;;;;;;;7.00;1.35;;;;;;;21.84;40.53;100057.13;4444760;32;32594;-79
2022/07/07 00:29:27;;;;;;;2.62;1.40;;;;;;;21.82;40.91;100059.34;4443440;32;33073;-79
2022/07/07 00:31:58;;;;;;;3.70;1.40;;;;;;;21.65;41.74;100055.91;4443271;32;32297;-79
2022/07/07 00:34:25;;;;;;;2.90;1.60;;;;;;;21.64;41.87;100057.03;4430646;32;33952;-79
2022/07/07 00:36:53;;;;;;;5.37;1.40;;;;;;;21.62;41.95;100059.25;4430702;32;32594;-79
2022/07/07 00:39:21;;;;;;;2.87;1.52;;;;;;;21.52;42.12;100048.88;4430827;32;32556;-79
2022/07/07 00:41:48;;;;;;;2.12;1.37;;;;;;;21.50;42.27;100053.06;4443539;32;34596;-79
2022/07/07 00:44:20;;;;;;;2.22;1.40;;;;;;;21.41;42.51;100046.34;4430172;32;34005;-79
2022/07/07 00:46:51;;;;;;;3.10;1.50;;;;;;;21.50;42.05;100050.25;4443815;32;33951;-79
2022/07/07 00:49:20;;;;;;;7.03;1.60;;;;;;;21.50;41.87;100053.06;4443384;32;32466;-79
2022/07/07 00:51:48;;;;;;;2.70;1.45;;;;;;;21.33;42.34;100064.44;4442667;32;32473;-79
2022/07/07 00:54:16;;;;;;;2.80;1.40;;;;;;;21.44;42.39;100068.13;4443139;32;33435;-79
2022/07/07 00:56:44;;;;;;;2.37;1.37;;;;;;;21.27;42.85;100062.72;4443691;32;33367;-79
2022/07/07 00:59:15;;;;;;;4.45;1.60;;;;;;;21.18;43.05;100064.31;4443543;32;31861;-79
2022/07/07 01:01:43;;;;;;;4.55;1.35;;;;;;;20.99;43.57;100067.53;4443213;32;32299;-79
2022/07/07 01:04:12;;;;;;;5.28;1.58;;;;;;;21.21;43.24;100070.22;4443169;32;35216;-79
2022/07/07 01:06:40;;;;;;;3.60;1.60;;;;;;;21.06;43.72;100067.31;4430618;32;33320;-79
2022/07/07 01:09:09;;;;;;;6.75;1.70;;;;;;;20.90;44.32;100065.50;4443382;32;33521;-79
2022/07/07 01:11:46;;;;;;;3.87;1.60;;;;;;;21.00;44.04;100060.84;4442896;32;32302;-79
2022/07/07 01:14:14;;;;;;;3.50;1.40;;;;;;;21.03;43.75;100060.31;4430344;32;34324;-79
2022/07/07 01:16:42;;;;;;;5.28;1.55;;;;;;;21.08;43.63;100065.09;4443058;32;32379;-79
2022/07/07 01:19:10;;;;;;;4.55;1.48;;;;;;;21.04;43.37;100064.78;4443026;32;32746;-79
2022/07/07 01:21:57;;;;;;;3.10;1.30;;;;;;;20.93;43.38;100063.03;4442938;32;32359;-79
2022/07/07 01:24:28;;;;;;;2.97;1.50;;;;;;;20.99;43.55;100064.75;4455582;32;33910;-79
2022/07/07 01:27:11;;;;;;;2.70;1.48;;;;;;;20.83;44.17;100067.69;4442905;32;32553;-79
2022/07/07 01:29:42;;;;;;;4.15;1.80;;;;;;;20.82;44.19;100072.44;4442320;32;32456;-79
2022/07/07 01:32:10;;;;;;;2.85;1.35;;;;;;;20.79;44.16;100061.00;4443074;32;33811;-79
2022/07/07 01:34:45;;;;;;;2.47;1.55;;;;;;;20.55;44.64;100060.50;4455665;32;34331;-79
2022/07/07 01:37:13;;;;;;;3.08;1.42;;;;;;;20.54;44.52;100056.03;4443026;32;33918;-79
2022/07/07 01:39:42;;;;;;;2.47;1.40;;;;;;;20.62;44.24;100067.53;4430212;32;31502;-79
2022/07/07 01:42:10;;;;;;;4.57;1.50;;;;;;;20.52;44.73;100064.66;4429973;32;32367;-79
2022/07/07 01:44:40;;;;;;;3.10;1.60;;;;;;;20.38;45.29;100064.25;4442817;32;34441;-79
2022/07/07 01:47:08;;;;;;;2.67;1.58;;;;;;;20.48;45.08;100071.03;4442795;32;34056;-79
2022/07/07 01:49:36;;;;;;;3.20;1.73;;;;;;;20.50;44.94;100061.31;4442546;32;32262;-79
2022/07/07 01:52:05;;;;;;;2.00;1.35;;;;;;;20.50;44.86;100069.66;4443134;32;34531;-79
2022/07/07 01:54:34;;;;;;;3.00;1.52;;;;;;;20.40;45.06;100069.56;4442581;32;35041;-79
2022/07/07 01:57:02;;;;;;;2.58;1.48;;;;;;;20.35;44.95;100072.28;4443842;32;33277;-79
2022/07/07 01:59:30;;;;;;;4.72;1.62;;;;;;;20.35;45.28;100063.91;4457199;32;32875;-79
2022/07/07 02:01:58;;;;;;;2.97;1.52;;;;;;;20.16;46.15;100070.94;4444386;32;33317;-79
2022/07/07 02:04:29;;;;;;;2.50;1.40;;;;;;;20.30;45.61;100073.06;4444364;32;34277;-79
2022/07/07 02:06:57;;;;;;;2.30;1.40;;;;;;;20.26;45.71;100074.69;4432137;32;32325;-79
2022/07/07 02:09:24;;;;;;;3.00;1.73;;;;;;;20.09;46.06;100073.12;4444264;32;33937;-79
2022/07/07 02:11:53;;;;;;;3.05;1.30;;;;;;;20.10;45.75;100070.09;4444431;32;33103;-79
2022/07/07 02:14:22;;;;;;;2.90;1.55;;;;;;;20.24;45.55;100059.34;4457284;32;34329;-79
2022/07/07 02:16:52;;;;;;;3.03;1.70;;;;;;;19.94;46.39;100065.44;4457178;32;35266;-79
2022/07/07 02:19:20;;;;;;;4.18;1.80;;;;;;;20.00;46.15;100061.63;4457593;32;33365;-79
2022/07/07 02:21:50;;;;;;;2.75;1.60;;;;;;;20.04;46.05;100063.63;4444275;32;32507;-79
2022/07/07 02:24:18;;;;;;;3.95;1.85;;;;;;;20.04;46.19;100068.34;4444375;32;35214;-79
2022/07/07 02:26:46;;;;;;;3.97;1.70;;;;;;;19.87;46.74;100064.81;4431535;32;32407;-79
2022/07/07 02:29:14;;;;;;;3.97;1.60;;;;;;;19.96;46.42;100066.88;4444293;32;31704;-79
2022/07/07 02:31:43;;;;;;;5.93;1.67;;;;;;;19.72;47.21;100065.47;4431478;32;32325;-79
2022/07/07 02:34:11;;;;;;;3.60;1.75;;;;;;;19.82;46.89;100075.88;4444735;32;35237;-79
2022/07/07 02:36:39;;;;;;;5.72;2.00;;;;;;;19.97;46.57;100076.91;4444062;32;33842;-79
2022/07/07 02:39:08;;;;;;;7.50;2.00;;;;;;;19.69;47.01;100079.91;4431857;32;32755;-79
2022/07/07 02:41:36;;;;;;;3.95;1.90;;;;;;;19.62;47.28;100080.09;4431505;32;33065;-79
2022/07/07 02:44:04;;;;;;;4.20;1.83;;;;;;;19.56;47.36;100083.91;4444241;32;34605;-79
2022/07/07 02:46:32;;;;;;;2.95;1.80;;;;;;;19.67;47.10;100082.94;4431266;32;32436;-79
2022/07/07 02:49:00;;;;;;;3.30;2.00;;;;;;;19.60;47.43;100082.28;4444279;32;34350;-79
2022/07/07 02:51:27;;;;;;;2.78;1.70;;;;;;;19.64;47.34;100077.06;4431503;32;32501;-78
2022/07/07 02:53:55;;;;;;;3.28;1.52;;;;;;;19.57;47.62;100081.97;4443983;32;33054;-78
2022/07/07 02:56:23;;;;;;;4.00;1.67;;;;;;;19.51;47.82;100089.41;4431272;32;32419;-79
2022/07/07 02:58:54;;;;;;;5.30;1.80;;;;;;;19.50;47.74;100086.88;4444562;32;33267;-79
2022/07/07 03:01:21;;;;;;;3.40;1.70;;;;;;;19.44;47.87;100085.97;4445755;32;33808;-79
2022/07/07 03:03:49;;;;;;;3.55;1.80;;;;;;;19.48;47.65;100086.31;4435614;32;33043;-79
2022/07/07 03:06:17;;;;;;;3.70;1.70;;;;;;;19.36;48.15;100083.63;4447985;32;33903;-78
2022/07/07 03:08:45;;;;;;;5.47;2.00;;;;;;;19.21;48.69;100086.19;4448371;32;34165;-79
2022/07/07 03:11:12;;;;;;;4.25;1.90;;;;;;;19.39;48.01;100081.19;4447818;32;34720;-79
2022/07/07 03:13:43;;;;;;;3.17;1.73;;;;;;;19.24;48.63;100078.16;4446457;32;35344;-79
2022/07/07 03:16:13;;;;;;;4.12;1.80;;;;;;;19.25;48.81;100079.00;4444458;32;34828;-78
2022/07/07 03:18:41;;;;;;;3.03;1.80;;;;;;;19.13;49.17;100079.12;4443764;32;33452;-78
2022/07/07 03:21:11;;;;;;;2.92;1.70;;;;;;;19.25;48.85;100076.22;4443187;32;32329;-79
2022/07/07 03:23:39;;;;;;;3.55;2.00;;;;;;;19.28;48.89;100079.34;4443259;32;34312;-79
2022/07/07 03:26:07;;;;;;;3.80;1.90;;;;;;;19.08;49.55;100082.66;4430291;32;32424;-78
2022/07/07 03:28:34;;;;;;;4.68;1.95;;;;;;;19.29;49.03;100081.03;4442792;32;32718;-79
2022/07/07 03:31:02;;;;;;;4.25;2.12;;;;;;;19.21;49.49;100078.69;4430175;32;32417;-79
2022/07/07 03:33:30;;;;;;;4.35;2.08;;;;;;;19.31;49.33;100087.19;4443219;32;35259;-79
2022/07/07 03:35:58;;;;;;;5.10;2.30;;;;;;;19.54;48.90;100083.31;4430154;32;32838;-79
2022/07/07 03:38:28;;;;;;;3.83;2.20;;;;;;;19.45;49.29;100084.03;4443112;32;33541;-79
2022/07/07 03:40:57;;;;;;;3.95;2.20;;;;;;;19.50;49.32;100089.66;4443125;32;32320;-78
2022/07/07 03:43:33;;;;;;;4.20;2.20;;;;;;;19.38;49.77;100087.00;4443727;32;33034;-79
2022/07/07 03:46:01;;;;;;;4.25;2.22;;;;;;;19.36;49.83;100086.41;4443051;32;32417;-78
2022/07/07 03:48:31;;;;;;;3.40;1.87;;;;;;;19.34;50.24;100096.97;4430237;32;31905;-78
2022/07/07 03:50:59;;;;;;;4.45;1.83;;;;;;;19.35;50.36;100090.28;4443227;32;33693;-79
2022/07/07 03:53:27;;;;;;;3.70;2.00;;;;;;;19.29;50.57;100092.16;4455847;32;35362;-79
2022/07/07 03:55:56;;;;;;;4.32;2.28;;;;;;;19.30;50.58;100087.44;4455947;32;34081;-79
2022/07/07 03:58:23;;;;;;;3.42;2.17;;;;;;;19.24;50.67;100086.53;4442897;32;33071;-78
2022/07/07 04:00:51;;;;;;;4.30;2.30;;;;;;;19.46;50.03;100085.72;4443016;32;33619;-78
2022/07/07 04:03:19;;;;;;;9.60;2.65;;;;;;;19.47;50.36;100087.41;4432768;32;125697;-79
2022/07/07 04:05:47;;;;;;;4.90;2.45;;;;;;;19.58;50.14;100086.44;4424452;32;32658;-79
2022/07/07 04:08:14;;;;;;;4.50;2.65;;;;;;;19.76;49.47;100079.72;4430932;32;32747;-78
2022/07/07 04:10:42;;;;;;;8.00;3.00;;;;;;;19.91;49.17;100077.94;4443668;32;33534;-78
2022/07/07 04:13:10;;;;;;;6.57;2.90;;;;;;;20.06;48.46;100075.34;4444091;32;35203;-79
2022/07/07 04:15:37;;;;;;;5.90;2.50;;;;;;;19.85;49.41;100080.94;4443716;32;34851;-79
2022/07/07 04:18:05;;;;;;;5.43;2.50;;;;;;;19.84;49.83;100082.88;4442802;32;32189;-79
2022/07/07 04:20:33;;;;;;;6.60;2.70;;;;;;;19.94;49.86;100080.22;4443270;32;33669;-78
2022/07/07 04:23:01;;;;;;;4.65;2.55;;;;;;;20.12;49.13;100084.59;4456377;32;35207;-78
2022/07/07 04:25:33;;;;;;;4.47;2.42;;;;;;;20.13;48.94;100074.28;4444662;32;33884;-78
2022/07/07 04:28:01;;;;;;;7.80;2.60;;;;;;;20.08;49.19;100066.72;4443572;32;33452;-78
2022/07/07 04:30:28;;;;;;;4.43;2.28;;;;;;;20.18;49.32;100074.31;4443508;32;33880;-78
2022/07/07 04:32:57;;;;;;;3.72;2.10;;;;;;;20.12;50.06;100067.87;4443801;32;35136;-79
2022/07/07 04:35:27;;;;;;;4.40;2.05;;;;;;;20.25;50.25;100067.44;4443681;32;34776;-79
2022/07/07 04:37:55;;;;;;;4.45;2.33;;;;;;;20.33;50.26;100057.75;4443390;32;33558;-78
2022/07/07 04:40:22;;;;;;;4.25;1.87;;;;;;;20.55;49.57;100064.13;4430798;32;33313;-79
2022/07/07 04:42:50;;;;;;;4.50;2.00;;;;;;;20.60;48.79;100078.13;4430704;32;33920;-79
2022/07/07 04:45:21;;;;;;;5.40;2.50;;;;;;;20.68;47.28;100068.44;4444018;32;34543;-79
2022/07/07 04:47:49;;;;;;;4.18;2.10;;;;;;;20.77;47.11;100071.56;4443496;32;32670;-79
2022/07/07 04:50:16;;;;;;;5.12;2.62;;;;;;;20.80;47.17;100071.03;4430570;32;32844;-75
2022/07/07 04:52:46;;;;;;;7.20;1.90;;;;;;;20.86;46.59;100073.56;4443267;32;33998;-74
2022/07/07 04:55:14;;;;;;;4.18;2.50;;;;;;;21.09;46.03;100077.09;4456166;32;33963;-74
2022/07/07 04:57:42;;;;;;;4.10;2.40;;;;;;;21.21;46.08;100074.94;4470079;32;33347;-75
2022/07/07 05:00:10;;;;;;;7.25;3.22;;;;;;;21.26;46.42;100067.47;4455795;32;33649;-74
2022/07/07 05:02:38;;;;;;;4.85;2.20;;;;;;;21.31;46.17;100066.66;4469883;32;34557;-75
2022/07/07 05:05:06;;;;;;;3.62;2.00;;;;;;;21.36;45.93;100070.31;4443191;32;32453;-75
2022/07/07 05:07:34;;;;;;;4.75;2.10;;;;;;;21.40;45.39;100067.00;4443132;32;32720;-75
2022/07/07 05:10:02;;;;;;;6.15;1.90;;;;;;;21.72;44.16;100073.28;4442571;32;32320;-74
2022/07/07 05:12:29;;;;;;;4.82;1.90;;;;;;;21.80;43.77;100074.69;4469978;32;35322;-74
2022/07/07 05:14:57;;;;;;;4.07;2.10;;;;;;;21.78;43.85;100072.19;4455868;32;33631;-75
2022/07/07 05:17:24;;;;;;;5.28;2.37;;;;;;;21.73;44.10;100071.31;4456231;32;33734;-74
2022/07/07 05:19:52;;;;;;;4.03;2.20;;;;;;;21.78;44.15;100071.34;4442951;32;33832;-74
2022/07/07 05:22:20;;;;;;;6.93;2.37;;;;;;;21.84;44.37;100071.09;4455902;32;34761;-74
2022/07/07 05:24:48;;;;;;;5.22;2.80;;;;;;;21.97;44.74;100067.78;4469856;32;34097;-74
2022/07/07 05:27:15;;;;;;;6.25;3.12;;;;;;;22.02;45.59;100065.03;4470072;32;33215;-74
2022/07/07 05:29:43;;;;;;;5.15;2.40;;;;;;;22.07;46.04;100068.97;4469557;32;33442;-74
2022/07/07 05:32:10;;;;;;;6.97;2.90;;;;;;;22.12;45.90;100068.94;4455794;32;34450;-74
2022/07/07 05:34:38;;;;;;;6.18;2.30;;;;;;;22.23;45.99;100060.31;4469721;32;33659;-75
2022/07/07 05:37:05;;;;;;;5.90;2.58;;;;;;;22.33;46.02;100067.87;4455446;32;32769;-74
2022/07/07 05:39:33;;;;;;;4.03;2.22;;;;;;;22.35;44.72;100068.44;4442779;32;33162;-74
2022/07/07 05:42:01;;;;;;;4.12;2.20;;;;;;;22.48;45.18;100065.09;4455673;32;34203;-75
2022/07/07 05:44:28;;;;;;;6.35;2.50;;;;;;;22.55;44.95;100074.06;4429418;32;33469;-75
2022/07/07 05:46:56;;;;;;;8.63;2.83;;;;;;;22.74;44.00;100065.13;4455980;32;34075;-74
2022/07/07 05:49:23;;;;;;;5.32;2.62;;;;;;;22.89;43.95;100065.13;4442652;32;32397;-75
2022/07/07 05:51:51;;;;;;;6.12;2.50;;;;;;;23.13;43.13;100063.41;4469619;32;34523;-79
2022/07/07 05:54:19;;;;;;;4.25;1.87;;;;;;;23.19;42.70;100067.06;4442885;32;34672;-79
2022/07/07 05:56:47;;;;;;;4.32;2.40;;;;;;;23.33;42.49;100059.75;4442574;32;34101;-80
2022/07/07 05:59:14;;;;;;;4.00;2.22;;;;;;;23.37;43.07;100057.22;4442926;32;33516;-79
2022/07/07 06:01:42;;;;;;;4.80;1.92;;;;;;;23.40;42.18;100054.66;4442814;32;34518;-79
2022/07/07 06:04:10;;;;;;;4.85;2.22;;;;;;;23.46;42.09;100061.06;4442254;32;32257;-79
2022/07/07 06:06:38;;;;;;;4.43;2.10;;;;;;;23.54;41.18;100063.31;4442206;32;33001;-80
2022/07/07 06:09:05;;;;;;;5.53;2.10;;;;;;;23.60;40.75;100060.22;4442284;32;32532;-79
2022/07/07 06:11:33;;;;;;;5.12;2.03;;;;;;;23.64;40.23;100060.50;4442559;32;35101;-80
2022/07/07 06:14:01;;;;;;;4.10;2.03;;;;;;;23.84;40.29;100067.97;4442561;32;33870;-79
2022/07/07 06:16:41;;;;;;;4.97;2.30;;;;;;;23.85;39.57;100066.84;4442175;32;32903;-80
2022/07/07 06:19:13;;;;;;;2.95;1.75;;;;;;;23.88;38.94;100064.31;4429185;32;32396;-79
2022/07/07 06:21:41;;;;;;;6.75;1.92;;;;;;;23.95;38.41;100064.00;4443324;32;33140;-79
2022/07/07 06:24:09;;;;;;;2.95;1.85;;;;;;;24.07;38.11;100066.44;4430712;32;32453;-79
2022/07/07 06:26:37;;;;;;;4.35;2.00;;;;;;;24.19;37.85;100070.56;4439658;32;33146;-79
2022/07/07 06:29:05;;;;;;;4.40;1.83;;;;;;;24.18;37.52;100063.28;4426703;32;33096;-79
2022/07/07 06:31:37;;;;;;;4.95;2.30;;;;;;;24.24;37.44;100067.75;4452121;32;34088;-79
2022/07/07 06:34:05;;;;;;;3.78;1.75;;;;;;;24.32;37.32;100069.12;4439513;32;34085;-79
2022/07/07 06:36:33;;;;;;;4.82;2.10;;;;;;;24.34;37.74;100068.84;4439260;32;33886;-79
2022/07/07 06:39:00;;;;;;;4.12;1.85;;;;;;;24.48;38.22;100061.44;4426438;32;32249;-79
2022/07/07 06:41:38;;;;;;;6.45;1.95;;;;;;;24.49;37.57;100069.56;4439420;32;34358;-79
2022/07/07 06:44:06;;;;;;;4.22;2.42;;;;;;;24.65;37.11;100067.50;4441423;32;33947;-79
2022/07/07 06:46:34;;;;;;;4.87;2.03;;;;;;;24.56;37.29;100070.09;4441507;32;33568;-80
2022/07/07 06:49:02;;;;;;;5.87;2.47;;;;;;;24.85;36.30;100063.66;4441426;32;34558;-79
2022/07/07 06:51:30;;;;;;;3.97;2.33;;;;;;;24.83;36.79;100063.09;4441364;32;33863;-79
2022/07/07 06:53:58;;;;;;;5.30;1.95;;;;;;;24.98;36.68;100071.44;4441154;32;34032;-74
2022/07/07 06:56:26;;;;;;;4.90;2.03;;;;;;;25.24;35.26;100070.06;4453804;32;34233;-77
2022/07/07 06:58:54;;;;;;;5.40;2.30;;;;;;;25.05;35.33;100066.31;4428726;32;32290;-77
2022/07/07 07:01:21;;;;;;;3.97;2.17;;;;;;;25.01;35.75;100054.00;4441311;32;34314;-77
2022/07/07 07:03:49;;;;;;;5.15;2.03;;;;;;;25.14;36.77;100060.91;4441025;32;34140;-77
2022/07/07 07:06:19;;;;;;;5.57;2.28;;;;;;;25.44;33.92;100062.50;4441750;32;33439;-75
2022/07/07 07:08:48;;;;;;;3.92;1.90;;;;;;;25.28;34.11;100065.53;4442000;32;33974;-75
2022/07/07 07:11:16;;;;;;;3.47;1.92;;;;;;;25.37;34.39;100068.50;4441722;32;32907;-77
2022/07/07 07:13:47;;;;;;;4.22;2.20;;;;;;;25.40;33.76;100067.91;4453953;32;33891;-77
2022/07/07 07:16:16;;;;;;;4.62;2.22;;;;;;;25.42;33.91;100053.53;4453964;32;33835;-78
2022/07/07 07:18:44;;;;;;;5.60;2.42;;;;;;;25.47;34.64;100061.91;4440604;32;34117;-78
2022/07/07 07:21:12;;;;;;;3.37;1.85;;;;;;;25.44;35.06;100049.31;4427825;32;33575;-78
2022/07/07 07:23:41;;;;;;;3.75;1.90;;;;;;;25.59;34.99;100054.75;4440828;32;34127;-79
2022/07/07 07:26:09;;;;;;;7.95;2.10;;;;;;;25.67;34.26;100050.47;4428427;32;33740;-78
2022/07/07 07:28:37;;;;;;;6.07;2.17;;;;;;;25.60;35.35;100052.78;4430898;32;31692;-78
2022/07/07 07:31:05;;;;;;;4.95;2.08;;;;;;;25.60;35.43;100048.00;4448684;32;34375;-78
2022/07/07 07:33:35;;;;;;;3.15;1.67;;;;;;;25.70;36.14;100038.62;4447677;32;33809;-78
2022/07/07 07:36:07;;;;;;;4.65;2.00;;;;;;;25.61;37.00;100044.03;4450853;32;31825;-78
2022/07/07 07:38:37;;;;;;;8.20;2.47;;;;;;;25.72;36.34;100044.78;4448233;32;33776;-79
2022/07/07 07:41:08;;;;;;;3.17;1.90;;;;;;;25.78;35.50;100048.38;4450442;32;35559;-79
2022/07/07 07:43:36;;;;;;;5.55;2.22;;;;;;;25.88;34.88;100035.03;4462045;32;34017;-78
2022/07/07 07:46:08;;;;;;;6.15;3.00;;;;;;;25.86;36.36;100037.28;4451410;32;33281;-79
2022/07/07 07:48:36;;;;;;;5.68;2.40;;;;;;;25.99;36.45;100051.75;4442827;32;34265;-79
2022/07/07 07:51:03;;;;;;;6.20;2.60;;;;;;;26.06;35.24;100040.94;4447738;32;35204;-75
2022/07/07 07:53:31;;;;;;;2.87;1.92;;;;;;;26.14;36.02;100046.72;4454848;32;34014;-77
2022/07/07 07:55:58;;;;;;;4.45;2.15;;;;;;;26.05;34.03;100044.88;4456135;32;33153;-77
2022/07/07 07:58:26;;;;;;;3.65;2.10;;;;;;;26.26;34.51;100046.28;4456130;32;33825;-76
2022/07/07 08:00:54;;;;;;;6.28;2.42;;;;;;;25.90;35.82;100049.63;4456034;32;35092;-76
2022/07/07 08:03:22;;;;;;;4.12;2.28;;;;;;;26.14;35.27;100049.53;4456149;32;33992;-77
2022/07/07 08:05:49;;;;;;;3.75;1.83;;;;;;;26.35;34.21;100047.28;4441683;32;34077;-77
2022/07/07 08:08:17;;;;;;;4.12;2.20;;;;;;;26.47;33.24;100044.84;4454830;32;34359;-78
2022/07/07 08:10:44;;;;;;;4.35;2.10;;;;;;;26.58;33.79;100048.34;4442674;32;36404;-77
2022/07/07 08:13:14;;;;;;;4.32;1.77;;;;;;;26.66;34.49;100042.00;4443051;32;34075;-77
2022/07/07 08:16:05;;;;;;;7.05;2.20;;;;;;;26.82;34.16;100039.75;4456768;32;33348;-77
2022/07/07 08:18:58;;;;;;;3.87;1.85;;;;;;;26.87;34.77;100034.88;4442579;32;34335;-77
2022/07/07 08:21:51;;;;;;;5.10;2.20;;;;;;;26.96;33.52;100035.03;4461753;32;35294;-76
2022/07/07 08:24:45;;;;;;;4.75;2.28;;;;;;;27.05;33.38;100043.63;4481436;32;32407;-77
2022/07/07 08:27:43;;;;;;;5.60;2.05;;;;;;;27.16;33.54;100037.47;4456803;32;34489;-77
2022/07/07 08:30:37;;;;;;;2.35;1.73;;;;;;;27.23;33.72;100037.91;4457017;32;32377;-78
2022/07/07 08:33:29;;;;;;;4.25;1.80;;;;;;;27.39;30.75;100046.87;4456283;32;35369;-78
2022/07/07 08:36:24;;;;;;;3.78;1.83;;;;;;;27.20;30.49;100029.25;4457953;32;33996;-79
2022/07/07 08:39:11;;;;;;;;;;;;;;;27.20;31.16;100035.72;4457115;32;32934;-75
2022/07/07 08:42:04;;;;;;;5.22;2.37;;;;;;;27.24;31.93;100033.13;4457782;32;32150;-78
2022/07/07 08:44:56;;;;;;;6.55;2.00;;;;;;;27.17;32.01;100032.69;4455457;32;33405;-76
2022/07/07 08:47:52;;;;;;;4.62;1.77;;;;;;;26.96;31.04;100031.34;4457091;32;33002;-77
2022/07/07 08:53:55;;;;;;;6.68;2.10;;;;;;;27.08;31.74;100031.72;4469935;32;35350;-77
2022/07/07 08:56:40;;;;;;;6.80;2.40;;;;;;;27.09;32.67;100031.41;4468392;32;34404;-75
2022/07/07 08:59:31;;;;;;;6.28;2.53;;;;;;;27.03;33.14;100024.19;4456936;32;32846;-75
2022/07/07 09:02:29;;;;;;;4.05;1.90;;;;;;;26.97;33.97;100021.78;4446265;32;32033;-75
2022/07/07 09:05:22;;;;;;;4.43;2.00;;;;;;;26.92;33.94;100031.97;4457287;32;33983;-75
2022/07/07 09:08:37;;;;;;;5.15;3.08;;;;;;;26.87;34.83;100022.78;4468910;32;34030;-75
2022/07/07 09:11:41;;;;;;;9.05;2.33;;;;;;;26.95;34.64;100024.88;4468721;32;34151;-74
2022/07/07 09:14:29;;;;;;;3.92;2.00;;;;;;;26.93;34.84;100015.91;4428839;32;34885;-75
2022/07/07 09:17:36;;;;;;;5.57;2.37;;;;;;;27.16;34.03;100016.91;4448591;32;33934;-76
2022/07/07 09:20:38;;;;;;;4.72;2.50;;;;;;;27.23;34.63;100012.56;4456549;32;35626;-75
2022/07/07 09:23:22;;;;;;;3.97;2.17;;;;;;;27.18;34.40;100015.47;4469563;32;33992;-75
2022/07/07 09:25:50;;;;;;;3.92;2.08;;;;;;;27.43;32.21;100016.09;4445088;32;34193;-75
2022/07/07 09:28:19;;;;;;;9.50;3.08;;;;;;;27.53;33.34;100016.72;4443113;32;34410;-74
2022/07/07 09:31:04;;;;;;;4.72;2.35;;;;;;;27.57;34.41;100014.09;4455744;32;35166;-76
2022/07/07 09:33:53;;;;;;;3.50;1.98;;;;;;;27.70;33.88;100018.94;4467633;32;33816;-76
2022/07/07 09:39:54;;;;;;;5.15;2.00;;;;;;;27.76;31.77;100023.31;4469691;32;33627;-75
2022/07/07 09:43:02;;;;;;;4.75;1.95;;;;;;;27.72;32.39;100030.75;4468615;32;34748;-76
2022/07/07 09:45:47;;;;;;;5.00;2.42;;;;;;;27.80;31.78;100020.72;4443233;32;34876;-76
2022/07/07 09:48:39;;;;;;;4.95;2.10;;;;;;;27.80;31.11;100018.72;4468700;32;33954;-76
2022/07/07 09:51:42;;;;;;;5.87;1.87;;;;;;;28.14;30.24;100032.31;4457448;32;34176;-75
2022/07/07 09:54:38;;;;;;;7.07;2.47;;;;;;;28.09;28.74;100014.66;4468594;32;34387;-75
2022/07/07 09:57:21;;;;;;;4.30;2.12;;;;;;;28.36;32.20;100023.09;4443321;32;34690;-76
2022/07/07 10:00:09;;;;;;;5.25;1.83;;;;;;;28.50;35.12;100008.94;4469769;32;33290;-75
2022/07/07 10:03:10;;;;;;;6.70;1.87;;;;;;;28.59;28.12;100018.31;4468609;32;34046;-74
2022/07/07 10:06:08;;;;;;;3.53;1.80;;;;;;;28.53;27.51;100003.47;4468179;32;35173;-74
2022/07/07 10:08:56;;;;;;;4.00;1.58;;;;;;;28.81;27.67;100001.31;4469343;32;34062;-76
2022/07/07 10:12:06;;;;;;;4.90;1.80;;;;;;;29.05;25.24;100009.47;4456734;32;33384;-76
2022/07/07 10:15:19;;;;;;;7.57;3.25;;;;;;;28.72;25.99;100010.91;4453293;32;34068;-76
2022/07/07 10:18:15;;;;;;;3.53;1.70;;;;;;;28.77;27.14;100005.94;4453762;32;34354;-75
2022/07/07 10:21:04;;;;;;;2.85;1.60;;;;;;;28.63;25.96;100010.00;4456179;32;32669;-76
2022/07/07 10:23:51;;;;;;;8.07;2.20;;;;;;;28.68;26.74;99993.75;4455214;32;34055;-76
2022/07/07 10:26:56;;;;;;;4.15;1.83;;;;;;;28.90;28.28;100004.22;4443061;32;33949;-77
2022/07/07 10:30:23;;;;;;;2.85;1.40;;;;;;;28.94;26.92;100008.09;4441876;32;34510;-79
2022/07/07 10:33:21;;;;;;;5.07;1.90;;;;;;;28.79;26.31;99994.31;4452578;32;35079;-79
2022/07/07 10:36:27;;;;;;;4.78;1.65;;;;;;;28.83;26.89;99999.03;4447512;32;31788;-80
2022/07/07 10:39:16;;;;;;;2.80;1.60;;;;;;;28.53;27.21;99999.81;4462252;32;33717;-79
2022/07/07 10:42:23;;;;;;;4.35;1.80;;;;;;;29.05;26.77;99994.50;4454265;32;33357;-79
2022/07/07 10:45:29;;;;;;;2.83;1.58;;;;;;;29.05;26.72;99988.84;4456876;32;34604;-79
2022/07/07 10:49:08;;;;;;;4.35;1.75;;;;;;;28.92;27.06;99996.25;4464905;32;33239;-79
2022/07/07 10:52:17;;;;;;;5.05;2.10;;;;;;;29.16;26.96;99995.91;4454998;32;35306;-79
2022/07/07 10:57:53;;;;;;;7.62;1.92;;;;;;;30.06;26.50;99990.69;4457741;32;35184;-79
2022/07/07 11:15:51;;;;;;;4.85;2.05;;;;;;;30.40;25.81;99968.06;4455869;26;34558;-75
2022/07/07 11:18:22;;;;;;;5.60;2.10;;;;;;;30.45;25.55;99969.91;4410635;32;34500;-74
2022/07/07 11:20:56;;;;;;;3.30;1.70;;;;;;;30.40;25.08;99978.56;4411245;32;33664;-74
2022/07/07 11:26:43;;;;;;;4.43;1.80;;;;;;;29.61;25.71;99965.47;4240780;26;33985;-79
2022/07/07 11:29:11;;;;;;;6.12;2.03;;;;;;;29.40;26.50;99965.22;4412834;32;35241;-77
2022/07/07 11:31:40;;;;;;;4.32;1.50;;;;;;;29.51;27.09;99960.12;4412041;32;34039;-81
2022/07/07 11:34:18;;;;;;;3.72;1.90;;;;;;;29.28;27.58;99956.50;4409977;32;34305;-78
2022/07/07 11:36:47;;;;;;;4.65;1.80;;;;;;;29.43;27.18;99958.09;4421614;32;34507;-78
2022/07/07 11:39:15;;;;;;;5.28;1.80;;;;;;;29.47;26.87;99956.28;4411599;32;34406;-79
2022/07/07 11:41:44;;;;;;;5.07;1.73;;;;;;;29.81;26.69;99953.53;4412498;32;35322;-79
2022/07/07 11:44:19;;;;;;;5.50;1.98;;;;;;;29.97;26.59;99947.37;4413868;32;33515;-75
2022/07/07 11:46:48;;;;;;;4.35;2.08;;;;;;;30.38;26.75;99944.06;4422905;32;34360;-76
2022/07/07 11:49:20;;;;;;;6.22;2.05;;;;;;;30.36;26.68;99937.91;4412263;32;34892;-75
2022/07/07 11:52:01;;;;;;;4.85;1.80;;;;;;;30.06;28.62;99943.41;4412220;32;34221;-76
2022/07/07 11:55:03;;;;;;;3.78;1.95;;;;;;;30.08;27.13;99932.59;4412685;32;32862;-77
2022/07/07 11:58:00;;;;;;;3.58;1.83;;;;;;;30.35;27.28;99928.59;4411083;32;34676;-79
2022/07/07 12:00:50;;;;;;;5.25;1.60;;;;;;;30.22;26.76;99929.59;4409683;32;34126;-79
2022/07/07 12:03:48;;;;;;;3.47;1.80;;;;;;;30.39;27.09;99921.09;4416368;32;33872;-79
2022/07/07 12:06:55;;;;;;;4.70;2.00;;;;;;;30.35;27.09;99919.25;4426404;32;34182;-75
2022/07/07 12:09:43;;;;;;;4.43;1.85;;;;;;;30.48;26.75;99919.06;4413807;32;32017;-79
2022/07/07 12:12:36;;;;;;;4.95;2.00;;;;;;;30.63;27.40;99905.53;4413002;32;34033;-77
2022/07/07 12:15:33;;;;;;;4.40;2.10;;;;;;;30.57;26.13;99901.19;4416031;32;33799;-80
2022/07/07 12:18:28;;;;;;;8.05;2.22;;;;;;;30.41;26.79;99910.25;4413288;32;34128;-81
2022/07/07 12:21:35;;;;;;;6.85;2.30;;;;;;;30.31;27.63;99893.59;4414309;32;34280;-81
2022/07/07 12:24:25;;;;;;;8.98;2.95;;;;;;;30.62;26.47;99886.87;4413294;32;35587;-80
2022/07/07 12:27:43;;;;;;;3.45;2.08;;;;;;;30.49;26.99;99888.75;4399174;32;32781;-79
2022/07/07 12:30:33;;;;;;;4.15;1.80;;;;;;;30.45;27.46;99888.59;4413535;32;32462;-80
2022/07/07 12:33:47;;;;;;;4.07;1.92;;;;;;;30.54;27.14;99882.91;4425677;32;33812;-79
2022/07/07 12:36:45;;;;;;;7.35;2.25;;;;;;;30.67;26.80;99875.38;4426757;32;34349;-80